This is the latest recevied weather packets stored in our database for station/object 4S6DRJ-13. If no packets are shown the sender has not sent any weather packets the latest 1 day(s).
| Time | Temp. | Humidity | Pressure | Rain* | Wind** | Luminosity | Snow |
|---|---|---|---|---|---|---|---|
| 1778129556 | 32.22° C | 69% | 1005.4 hPa | 0 mm | 0.89 m/s, 300° | 1102 W/m² | - |
| 1778129495 | 32.22° C | 70% | 1005.2 hPa | 0 mm | 1.79 m/s, 284° | 1102 W/m² | - |
| 1778129434 | 32.22° C | 70% | 1005.2 hPa | 0 mm | 1.34 m/s, 243° | 1103 W/m² | - |
| 1778129373 | 32.22° C | 69% | 1005.3 hPa | 0 mm | 1.34 m/s, 199° | 969 W/m² | - |
| 1778129312 | 32.22° C | 69% | 1005.3 hPa | 0 mm | 0.45 m/s, 212° | 526 W/m² | - |
| 1778129251 | 32.22° C | 68% | 1005.1 hPa | 0 mm | 1.79 m/s, 216° | 994 W/m² | - |
| 1778129190 | 32.22° C | 69% | 1005.2 hPa | 0 mm | 0.89 m/s, 216° | 1102 W/m² | - |
| 1778129129 | 32.22° C | 69% | 1005.3 hPa | 0 mm | 0.45 m/s, 2° | 1102 W/m² | - |
| 1778129069 | 32.22° C | 68% | 1005.4 hPa | 0 mm | 0.89 m/s, 340° | 1102 W/m² | - |
| 1778129007 | 32.22° C | 69% | 1005.3 hPa | 0 mm | 0.89 m/s, 284° | 1102 W/m² | - |
| 1778128946 | 32.22° C | 69% | 1005.4 hPa | 0 mm | 0.89 m/s, 349° | 1102 W/m² | - |
| 1778128885 | 32.22° C | 68% | 1005.2 hPa | 0 mm | 0.89 m/s, 344° | 980 W/m² | - |
| 1778128824 | 32.22° C | 70% | 1005.3 hPa | 0 mm | 0.45 m/s, 303° | 447 W/m² | - |
| 1778128763 | 32.22° C | 69% | 1005.5 hPa | 0 mm | 0.89 m/s, 274° | 695 W/m² | - |
| 1778128702 | 32.78° C | 68% | 1005.4 hPa | 0 mm | 1.34 m/s, 304° | 1106 W/m² | - |
| 1778128641 | 32.78° C | 67% | 1005.2 hPa | 0 mm | 1.79 m/s, 302° | 1108 W/m² | - |
| 1778128580 | 32.78° C | 67% | 1005.3 hPa | 0 mm | 1.34 m/s, 304° | 1105 W/m² | - |
| 1778128519 | 32.78° C | 68% | 1005.2 hPa | 0 mm | 0 m/s | 1101 W/m² | - |
| 1778128458 | 32.78° C | 67% | 1005.3 hPa | 0 mm | 0.89 m/s, 220° | 986 W/m² | - |
| 1778128397 | 32.78° C | 67% | 1005.4 hPa | 0 mm | 1.34 m/s, 144° | 995 W/m² | - |
| 1778128336 | 32.78° C | 67% | 1005.4 hPa | 0 mm | 0.45 m/s, 110° | 1101 W/m² | - |
| 1778128275 | 32.22° C | 68% | 1005.5 hPa | 0 mm | 0.45 m/s, 207° | 1100 W/m² | - |
| 1778128214 | 32.22° C | 69% | 1005.3 hPa | 0 mm | 0 m/s | 996 W/m² | - |
| 1778128153 | 32.22° C | 69% | 1005.5 hPa | 0 mm | 0 m/s | 996 W/m² | - |
| 1778128092 | 32.22° C | 68% | 1005.4 hPa | 0 mm | 0.45 m/s, 218° | 993 W/m² | - |
* Rain latest hour (hover to see other rain measurements)
** Current wind speed in m/s (hover to see current wind gust speed)